createdAt,value
2022-12-09T00:00:32.079Z,3.67
2022-12-09T00:01:34.800Z,3.50
2022-12-09T00:02:37.585Z,3.00
2022-12-09T00:03:40.618Z,2.00
2022-12-09T00:04:43.529Z,2.43
2022-12-09T00:05:46.419Z,2.67
2022-12-09T00:06:48.894Z,1.17
2022-12-09T00:07:51.745Z,1.33
2022-12-09T00:08:54.792Z,2.86
2022-12-09T00:09:57.873Z,3.33
2022-12-09T00:11:00.806Z,2.00
2022-12-09T00:12:03.942Z,2.43
2022-12-09T00:13:06.882Z,3.00
2022-12-09T00:14:09.720Z,3.00
2022-12-09T00:15:12.485Z,2.57
2022-12-09T00:16:15.575Z,2.67
2022-12-09T00:17:18.380Z,3.57
2022-12-09T00:18:21.365Z,3.00
2022-12-09T00:19:24.250Z,3.00
2022-12-09T00:20:27.124Z,3.86
2022-12-09T00:21:29.662Z,4.00
2022-12-09T00:22:32.272Z,2.00
2022-12-09T00:23:34.934Z,2.33
2022-12-09T00:24:37.747Z,3.33
2022-12-09T00:25:40.555Z,1.67
2022-12-09T00:26:43.454Z,1.50
2022-12-09T00:27:46.246Z,2.86
2022-12-09T00:28:48.908Z,3.00
2022-12-09T00:29:51.913Z,2.00
2022-12-09T00:30:54.924Z,1.57
2022-12-09T00:31:58.062Z,1.43
2022-12-09T00:33:01.184Z,2.71
2022-12-09T00:34:04.053Z,3.67
2022-12-09T00:35:07.085Z,2.00
2022-12-09T00:36:09.954Z,3.86
2022-12-09T00:37:13.028Z,3.67
2022-12-09T00:38:15.926Z,1.17
2022-12-09T00:39:18.848Z,2.33
2022-12-09T00:40:21.802Z,4.67
2022-12-09T00:41:24.744Z,2.57
2022-12-09T00:42:27.693Z,0.67
2022-12-09T00:43:30.455Z,1.00
2022-12-09T00:44:33.389Z,3.00
2022-12-09T00:45:36.070Z,2.67
2022-12-09T00:46:39.088Z,2.33
2022-12-09T00:47:41.824Z,3.14
2022-12-09T00:48:44.703Z,1.14
2022-12-09T00:49:47.541Z,1.17
2022-12-09T00:50:50.633Z,1.86
2022-12-09T00:51:53.585Z,1.00
2022-12-09T00:52:56.529Z,1.33
2022-12-09T00:53:59.609Z,1.71
2022-12-09T00:55:02.361Z,1.43
2022-12-09T00:56:05.394Z,1.33
2022-12-09T00:57:08.032Z,0.67
2022-12-09T00:58:10.631Z,1.67
2022-12-09T00:59:13.364Z,1.33
2022-12-09T01:00:15.956Z,1.67
2022-12-09T01:01:18.595Z,1.67
2022-12-09T01:02:21.349Z,1.83
2022-12-09T01:03:24.321Z,1.00
2022-12-09T01:04:27.089Z,2.00
2022-12-09T01:05:29.774Z,1.00
2022-12-09T01:06:32.283Z,1.17
2022-12-09T01:07:34.921Z,0.60
2022-12-09T01:08:39.075Z,2.00
2022-12-09T01:09:41.306Z,1.87
2022-12-09T01:10:44.234Z,1.33
2022-12-09T01:11:46.955Z,0.33
2022-12-09T01:12:49.546Z,1.83
2022-12-09T01:13:52.417Z,1.83
2022-12-09T01:14:55.311Z,1.00
2022-12-09T01:15:58.165Z,1.50
2022-12-09T01:17:01.427Z,2.33
2022-12-09T01:18:04.118Z,1.00
2022-12-09T01:19:06.894Z,1.33
2022-12-09T01:20:10.020Z,1.00
2022-12-09T01:21:13.408Z,0.57
2022-12-09T01:22:16.416Z,0.86
2022-12-09T01:23:19.177Z,1.57
2022-12-09T01:24:22.163Z,1.00
2022-12-09T01:25:25.137Z,1.14
2022-12-09T01:26:28.081Z,1.33
2022-12-09T01:27:31.187Z,1.17
2022-12-09T01:28:34.135Z,1.00
2022-12-09T01:29:36.753Z,1.43
2022-12-09T01:30:39.653Z,1.33
2022-12-09T01:31:42.389Z,2.43
2022-12-09T01:32:45.489Z,2.67
2022-12-09T01:33:48.196Z,2.00
2022-12-09T01:34:50.797Z,2.50
2022-12-09T01:35:53.695Z,3.17
2022-12-09T01:36:56.313Z,1.33
2022-12-09T01:37:59.293Z,1.00
2022-12-09T01:39:01.948Z,1.14
2022-12-09T01:40:05.093Z,0.33
2022-12-09T01:41:08.376Z,2.00
2022-12-09T01:42:11.500Z,2.17
2022-12-09T01:43:14.356Z,1.71
2022-12-09T01:44:17.100Z,0.86
2022-12-09T01:45:19.882Z,0.83
2022-12-09T01:46:22.641Z,0.71
2022-12-09T01:47:25.669Z,1.83
2022-12-09T01:48:28.405Z,2.14
2022-12-09T01:49:31.199Z,1.33
2022-12-09T01:50:33.879Z,2.00
2022-12-09T01:51:36.668Z,2.00
2022-12-09T01:52:39.559Z,1.57
2022-12-09T01:53:42.320Z,1.67
2022-12-09T01:54:44.900Z,3.43
2022-12-09T01:55:47.483Z,3.00
2022-12-09T01:56:50.100Z,1.00
2022-12-09T01:57:52.918Z,1.00
2022-12-09T01:58:55.593Z,1.33
2022-12-09T01:59:58.320Z,1.67
2022-12-09T02:01:00.909Z,1.00
2022-12-09T02:02:03.652Z,1.33
2022-12-09T02:03:06.433Z,1.17
2022-12-09T02:04:10.025Z,1.71
2022-12-09T02:05:12.986Z,1.43
2022-12-09T02:06:16.233Z,2.00
2022-12-09T02:07:19.282Z,4.00
2022-12-09T02:08:22.506Z,2.86
2022-12-09T02:09:25.945Z,1.71
2022-12-09T02:10:28.834Z,2.29
2022-12-09T02:11:31.927Z,3.00
2022-12-09T02:12:34.967Z,1.33
2022-12-09T02:13:37.569Z,1.00
2022-12-09T02:14:40.579Z,1.67
2022-12-09T02:15:43.567Z,3.00
2022-12-09T02:16:46.331Z,3.00
2022-12-09T02:17:49.418Z,3.17
2022-12-09T02:18:52.418Z,3.86
2022-12-09T02:19:55.409Z,2.14
2022-12-09T02:20:58.208Z,1.50
2022-12-09T02:22:00.808Z,2.00
2022-12-09T02:23:03.575Z,1.00
2022-12-09T02:24:06.199Z,1.71
2022-12-09T02:25:09.373Z,2.00
2022-12-09T02:26:12.013Z,2.71
2022-12-09T02:27:14.623Z,2.33
2022-12-09T02:28:17.273Z,1.00
2022-12-09T02:29:20.172Z,1.67
2022-12-09T02:30:23.218Z,2.67
2022-12-09T02:31:25.911Z,1.67
2022-12-09T02:32:28.704Z,2.33
2022-12-09T02:33:31.491Z,2.67
2022-12-09T02:34:34.190Z,2.33
2022-12-09T02:35:37.154Z,1.67
2022-12-09T02:36:39.931Z,1.00
2022-12-09T02:37:42.421Z,1.00
2022-12-09T02:38:45.222Z,0.67
2022-12-09T02:39:47.887Z,1.00
2022-12-09T02:40:53.001Z,1.33
2022-12-09T02:41:55.919Z,1.25
2022-12-09T02:42:58.855Z,1.86
2022-12-09T02:44:01.474Z,1.50
2022-12-09T02:45:04.430Z,1.17
2022-12-09T02:46:07.430Z,2.33
2022-12-09T02:47:10.321Z,1.00
2022-12-09T02:48:13.161Z,1.43
2022-12-09T02:49:16.454Z,2.57
2022-12-09T02:50:19.536Z,4.00
2022-12-09T02:51:22.599Z,2.86
2022-12-09T02:52:25.305Z,3.29
2022-12-09T02:53:27.952Z,5.00
2022-12-09T02:54:30.662Z,4.00
2022-12-09T02:55:33.611Z,2.50
2022-12-09T02:56:36.611Z,2.00
2022-12-09T02:57:39.419Z,2.67
2022-12-09T02:58:42.241Z,1.43
2022-12-09T02:59:44.832Z,2.00
2022-12-09T03:00:47.930Z,1.83
2022-12-09T03:01:51.086Z,3.33
2022-12-09T03:02:54.298Z,2.29
2022-12-09T03:03:57.312Z,0.33
2022-12-09T03:05:00.498Z,2.14
2022-12-09T03:06:03.954Z,2.14
2022-12-09T03:07:07.272Z,0.29
2022-12-09T03:08:10.426Z,1.00
2022-12-09T03:09:13.512Z,1.00
2022-12-09T03:10:16.635Z,0.43
2022-12-09T03:11:19.458Z,1.00
2022-12-09T03:12:22.690Z,1.00
2022-12-09T03:13:25.602Z,1.71
2022-12-09T03:14:28.328Z,2.86
2022-12-09T03:15:31.352Z,2.00
2022-12-09T03:16:34.343Z,1.43
2022-12-09T03:17:37.739Z,1.14
2022-12-09T03:18:40.832Z,1.00
2022-12-09T03:19:43.655Z,2.00
2022-12-09T03:20:46.336Z,1.33
2022-12-09T03:21:48.918Z,2.00
2022-12-09T03:22:51.947Z,2.00
2022-12-09T03:23:54.459Z,1.33
2022-12-09T03:24:57.306Z,1.50
2022-12-09T03:26:00.245Z,1.00
2022-12-09T03:27:03.033Z,1.43
2022-12-09T03:28:06.145Z,1.83
2022-12-09T03:29:09.233Z,2.00
2022-12-09T03:30:12.256Z,1.43
2022-12-09T03:31:15.702Z,1.57
2022-12-09T03:32:18.734Z,1.43
2022-12-09T03:33:22.011Z,2.00
2022-12-09T03:34:24.950Z,1.86
2022-12-09T03:35:28.017Z,2.17
2022-12-09T03:36:31.099Z,2.17
2022-12-09T03:37:33.828Z,1.14
2022-12-09T03:38:36.838Z,1.00
2022-12-09T03:39:39.373Z,2.00
2022-12-09T03:40:42.563Z,0.33
2022-12-09T03:41:45.266Z,1.00
2022-12-09T03:42:47.965Z,2.00
2022-12-09T03:43:50.712Z,1.67
2022-12-09T03:44:53.598Z,3.00
2022-12-09T03:45:56.337Z,2.17
2022-12-09T03:46:59.457Z,1.57
2022-12-09T03:48:02.333Z,1.33
2022-12-09T03:49:05.403Z,1.67
2022-12-09T03:50:08.477Z,0.57
2022-12-09T03:51:11.892Z,1.00
2022-12-09T03:52:14.806Z,2.14
2022-12-09T03:53:17.477Z,2.00
2022-12-09T03:54:20.272Z,1.00
2022-12-09T03:55:23.061Z,1.17
2022-12-09T03:56:25.871Z,1.14
2022-12-09T03:57:28.581Z,0.33
2022-12-09T03:58:31.541Z,1.33
2022-12-09T03:59:34.808Z,1.50
2022-12-09T04:00:37.481Z,1.57
2022-12-09T04:01:40.078Z,3.00
2022-12-09T04:02:43.006Z,2.50
2022-12-09T04:03:46.050Z,2.00
2022-12-09T04:04:48.930Z,1.33
2022-12-09T04:05:51.523Z,1.67
2022-12-09T04:06:54.439Z,1.67
2022-12-09T04:07:57.140Z,0.86
2022-12-09T04:09:02.345Z,2.00
2022-12-09T04:10:03.829Z,2.37
2022-12-09T04:11:07.248Z,2.43
2022-12-09T04:12:10.079Z,1.67
2022-12-09T04:13:13.039Z,0.67
2022-12-09T04:14:16.082Z,0.43
2022-12-09T04:15:19.447Z,1.43
2022-12-09T04:16:22.188Z,2.43
2022-12-09T04:17:24.906Z,2.67
2022-12-09T04:18:28.051Z,2.33
2022-12-09T04:19:30.923Z,2.57
2022-12-09T04:20:33.934Z,1.67
2022-12-09T04:21:36.685Z,1.86
2022-12-09T04:22:39.325Z,1.17
2022-12-09T04:23:43.465Z,2.17
2022-12-09T04:24:45.620Z,2.75
2022-12-09T04:25:48.209Z,2.67
2022-12-09T04:26:50.919Z,2.33
2022-12-09T04:27:54.127Z,1.33
2022-12-09T04:28:57.003Z,0.67
2022-12-09T04:29:59.907Z,1.67
2022-12-09T04:31:02.851Z,1.67
2022-12-09T04:32:06.067Z,1.50
2022-12-09T04:33:09.351Z,1.50
2022-12-09T04:34:12.090Z,2.33
2022-12-09T04:35:14.872Z,1.00
2022-12-09T04:36:17.509Z,1.00
2022-12-09T04:37:20.258Z,0.67
2022-12-09T04:38:22.901Z,0.67
2022-12-09T04:39:25.924Z,0.33
2022-12-09T04:40:28.974Z,2.43
2022-12-09T04:41:31.903Z,2.14
2022-12-09T04:42:34.665Z,1.00
2022-12-09T04:43:37.730Z,0.86
2022-12-09T04:44:40.607Z,0.33
2022-12-09T04:45:43.256Z,2.83
2022-12-09T04:46:46.734Z,4.00
2022-12-09T04:47:49.641Z,0.88
2022-12-09T04:48:52.712Z,1.67
2022-12-09T04:49:55.659Z,0.57
2022-12-09T04:50:58.550Z,0.71
2022-12-09T04:52:01.530Z,1.50
2022-12-09T04:53:04.460Z,1.00
2022-12-09T04:54:07.304Z,1.67
2022-12-09T04:55:10.079Z,1.67
2022-12-09T04:56:12.973Z,1.50
2022-12-09T04:57:15.970Z,2.33
2022-12-09T04:58:18.951Z,0.57
2022-12-09T04:59:21.673Z,0.33
2022-12-09T05:00:24.703Z,1.33
2022-12-09T05:01:31.214Z,1.00
2022-12-09T05:02:31.441Z,1.43
2022-12-09T05:03:34.523Z,2.43
2022-12-09T05:04:37.687Z,1.57
2022-12-09T05:05:41.728Z,2.00
2022-12-09T05:06:44.921Z,2.00
2022-12-09T05:07:47.879Z,2.14
2022-12-09T05:08:51.294Z,2.00
2022-12-09T05:09:54.500Z,1.67
2022-12-09T05:10:57.381Z,1.50
2022-12-09T05:12:00.474Z,1.67
2022-12-09T05:13:03.339Z,1.29
2022-12-09T05:14:06.099Z,0.67
2022-12-09T05:15:09.107Z,3.33
2022-12-09T05:16:15.884Z,3.71
2022-12-09T05:17:15.813Z,1.71
2022-12-09T05:18:19.040Z,1.67
2022-12-09T05:19:22.093Z,2.00
2022-12-09T05:20:25.312Z,1.29
2022-12-09T05:21:28.135Z,1.43
2022-12-09T05:22:31.014Z,2.33
2022-12-09T05:23:33.987Z,2.00
2022-12-09T05:24:37.110Z,1.33
2022-12-09T05:25:40.065Z,0.83
2022-12-09T05:26:43.021Z,0.83
2022-12-09T05:27:46.068Z,1.57
2022-12-09T05:28:48.878Z,1.00
2022-12-09T05:29:51.552Z,1.67
2022-12-09T05:30:54.666Z,1.00
2022-12-09T05:31:57.586Z,1.00
2022-12-09T05:33:00.720Z,0.67
2022-12-09T05:34:03.828Z,1.57
2022-12-09T05:35:06.970Z,1.33
2022-12-09T05:36:09.938Z,1.67
2022-12-09T05:37:12.909Z,1.00
2022-12-09T05:38:15.708Z,0.29
2022-12-09T05:39:18.754Z,0.50
2022-12-09T05:40:21.824Z,1.00
2022-12-09T05:41:25.089Z,0.86
2022-12-09T05:42:28.237Z,1.14
2022-12-09T05:43:31.230Z,1.86
2022-12-09T05:44:34.430Z,0.17
2022-12-09T05:45:37.281Z,0.00
2022-12-09T05:46:40.327Z,0.00
2022-12-09T05:47:43.311Z,0.67
2022-12-09T05:48:46.187Z,1.67
2022-12-09T05:49:48.990Z,1.33
2022-12-09T05:50:51.715Z,2.00
2022-12-09T05:51:57.507Z,2.00
2022-12-09T05:53:00.361Z,1.25
2022-12-09T05:54:03.509Z,1.43
2022-12-09T05:55:06.932Z,1.00
2022-12-09T05:56:10.085Z,1.43
2022-12-09T05:57:13.739Z,0.86
2022-12-09T05:58:16.682Z,1.33
2022-12-09T05:59:20.644Z,1.00
2022-12-09T06:00:23.369Z,1.00
2022-12-09T06:01:26.417Z,1.00
2022-12-09T06:02:29.452Z,0.86
2022-12-09T06:03:32.492Z,1.00
2022-12-09T06:04:35.951Z,1.29
2022-12-09T06:05:39.168Z,1.29
2022-12-09T06:06:42.384Z,0.86
2022-12-09T06:07:45.642Z,1.00
2022-12-09T06:08:48.645Z,1.43
2022-12-09T06:09:51.821Z,1.17
2022-12-09T06:10:54.680Z,2.00
2022-12-09T06:11:57.560Z,1.29
2022-12-09T06:13:00.608Z,1.00
2022-12-09T06:14:03.596Z,1.00
2022-12-09T06:15:09.270Z,0.71
2022-12-09T06:16:10.632Z,1.00
2022-12-09T06:17:13.691Z,1.33
2022-12-09T06:18:16.683Z,1.17
2022-12-09T06:19:19.643Z,0.57
2022-12-09T06:20:22.837Z,0.67
2022-12-09T06:21:26.078Z,1.67
2022-12-09T06:22:29.314Z,0.57
2022-12-09T06:23:32.142Z,0.83
2022-12-09T06:24:35.249Z,1.00
2022-12-09T06:25:38.188Z,1.86
2022-12-09T06:26:41.157Z,4.00
2022-12-09T06:27:43.894Z,2.57
2022-12-09T06:28:46.848Z,2.00
2022-12-09T06:29:49.620Z,1.57
2022-12-09T06:30:52.405Z,2.67
2022-12-09T06:31:55.556Z,2.71
2022-12-09T06:32:58.464Z,0.71
2022-12-09T06:34:01.275Z,1.00
2022-12-09T06:35:04.145Z,1.86
2022-12-09T06:36:07.290Z,1.33
2022-12-09T06:37:10.377Z,1.29
2022-12-09T06:38:13.013Z,2.14
2022-12-09T06:39:15.906Z,1.17
2022-12-09T06:40:18.687Z,1.86
2022-12-09T06:41:21.334Z,2.83
2022-12-09T06:42:24.211Z,1.67
2022-12-09T06:43:27.123Z,1.86
2022-12-09T06:44:30.775Z,2.67
2022-12-09T06:45:33.744Z,2.29
2022-12-09T06:46:36.851Z,2.83
2022-12-09T06:47:39.958Z,3.00
2022-12-09T06:48:42.944Z,3.43
2022-12-09T06:49:46.232Z,4.43
2022-12-09T06:50:49.205Z,3.71
2022-12-09T06:51:52.023Z,2.33
2022-12-09T06:52:55.115Z,1.50
2022-12-09T06:53:58.099Z,2.86
2022-12-09T06:55:01.407Z,3.33
2022-12-09T06:56:11.101Z,1.33
2022-12-09T06:57:08.518Z,0.71
2022-12-09T06:58:11.746Z,1.14
2022-12-09T06:59:14.925Z,2.00
2022-12-09T07:00:18.386Z,2.43
2022-12-09T07:01:21.633Z,2.29
2022-12-09T07:02:24.715Z,1.71
2022-12-09T07:03:28.083Z,1.33
2022-12-09T07:04:31.402Z,1.86
2022-12-09T07:05:34.427Z,2.14
2022-12-09T07:06:37.558Z,1.00
2022-12-09T07:07:40.717Z,1.14
2022-12-09T07:08:43.653Z,0.67
2022-12-09T07:09:47.104Z,3.14
2022-12-09T07:10:54.818Z,2.67
2022-12-09T07:11:53.654Z,2.00
2022-12-09T07:12:56.940Z,2.67
2022-12-09T07:14:00.408Z,3.57
2022-12-09T07:15:03.666Z,3.00
2022-12-09T07:16:07.160Z,3.43
2022-12-09T07:17:10.521Z,4.00
2022-12-09T07:18:13.716Z,4.00
2022-12-09T07:19:17.973Z,4.14
2022-12-09T07:20:21.515Z,3.00
2022-12-09T07:21:24.787Z,3.00
2022-12-09T07:22:27.896Z,2.57
2022-12-09T07:23:30.716Z,2.33
2022-12-09T07:24:34.043Z,2.50
2022-12-09T07:25:37.247Z,2.00
2022-12-09T07:26:40.049Z,2.67
2022-12-09T07:27:42.994Z,2.57
2022-12-09T07:28:46.023Z,2.00
2022-12-09T07:29:48.784Z,3.00
2022-12-09T07:30:51.962Z,2.17
2022-12-09T07:31:55.023Z,2.00
2022-12-09T07:32:58.149Z,1.57
2022-12-09T07:34:01.112Z,1.00
2022-12-09T07:35:04.329Z,0.57
2022-12-09T07:36:07.763Z,0.67
2022-12-09T07:37:10.835Z,1.67
2022-12-09T07:38:14.028Z,1.33
2022-12-09T07:39:17.105Z,2.00
2022-12-09T07:40:20.380Z,1.57
2022-12-09T07:41:23.608Z,2.29
2022-12-09T07:42:26.928Z,3.00
2022-12-09T07:43:30.099Z,3.71
2022-12-09T07:44:33.140Z,3.86
2022-12-09T07:45:36.562Z,3.67
2022-12-09T07:46:39.647Z,2.67
2022-12-09T07:47:42.605Z,2.00
2022-12-09T07:48:45.761Z,2.00
2022-12-09T07:49:48.689Z,2.43
2022-12-09T07:50:52.037Z,2.86
2022-12-09T07:51:54.855Z,3.00
2022-12-09T07:52:57.870Z,2.86
2022-12-09T07:54:00.960Z,2.33
2022-12-09T07:55:03.980Z,2.29
2022-12-09T07:56:06.826Z,2.00
2022-12-09T07:57:10.038Z,3.50
2022-12-09T07:58:12.943Z,6.57
2022-12-09T07:59:16.072Z,3.86
2022-12-09T08:00:18.854Z,1.86
2022-12-09T08:01:21.734Z,1.50
2022-12-09T08:02:24.559Z,1.67
2022-12-09T08:03:27.571Z,1.71
2022-12-09T08:04:30.801Z,1.43
2022-12-09T08:05:33.698Z,2.67
2022-12-09T08:06:36.881Z,4.00
2022-12-09T08:07:44.173Z,4.00
2022-12-09T08:08:44.085Z,4.00
2022-12-09T08:09:47.213Z,2.57
2022-12-09T08:10:50.096Z,1.67
2022-12-09T08:11:53.151Z,1.00
2022-12-09T08:12:56.011Z,1.43
2022-12-09T08:13:58.939Z,1.67
2022-12-09T08:15:01.769Z,0.33
2022-12-09T08:16:05.287Z,2.00
2022-12-09T08:17:08.296Z,3.33
2022-12-09T08:18:11.917Z,3.00
2022-12-09T08:19:15.009Z,3.00
2022-12-09T08:20:20.371Z,1.43
2022-12-09T08:21:21.971Z,3.12
2022-12-09T08:22:24.880Z,4.00
2022-12-09T08:23:27.748Z,3.14
2022-12-09T08:24:30.769Z,2.67
2022-12-09T08:25:33.869Z,1.83
2022-12-09T08:26:36.613Z,2.43
2022-12-09T08:27:39.605Z,3.00
2022-12-09T08:28:42.913Z,3.00
2022-12-09T08:29:45.628Z,3.29
2022-12-09T08:30:49.193Z,4.17
2022-12-09T08:31:52.272Z,2.83
2022-12-09T08:32:55.601Z,2.00
2022-12-09T08:33:58.821Z,2.00
2022-12-09T08:35:10.499Z,2.00
2022-12-09T08:36:13.842Z,0.86
2022-12-09T08:37:17.583Z,2.43
2022-12-09T08:38:21.015Z,2.14
2022-12-09T08:39:25.116Z,0.71
2022-12-09T08:41:31.650Z,2.00
2022-12-09T08:42:35.269Z,2.43
2022-12-09T08:43:38.758Z,3.29
2022-12-09T08:44:42.312Z,5.71
2022-12-09T08:45:46.111Z,5.86
2022-12-09T08:46:49.515Z,4.37
2022-12-09T08:48:55.547Z,2.83
2022-12-09T08:51:01.878Z,3.86
2022-12-09T08:52:05.124Z,3.57
2022-12-09T08:53:08.657Z,4.14
2022-12-09T08:54:12.103Z,2.29
2022-12-09T08:55:15.746Z,1.14
2022-12-09T08:56:19.541Z,3.29
2022-12-09T08:57:22.975Z,4.57
2022-12-09T08:58:27.184Z,4.00
2022-12-09T08:59:30.955Z,4.00
2022-12-09T09:00:34.437Z,4.87
2022-12-09T09:01:38.112Z,4.71
2022-12-09T09:02:42.014Z,3.57
2022-12-09T09:03:45.827Z,3.71
2022-12-09T09:04:49.714Z,4.37
2022-12-09T09:05:53.451Z,3.62
2022-12-09T09:06:57.975Z,4.37
2022-12-09T09:08:01.740Z,4.57
2022-12-09T09:09:05.232Z,3.50
2022-12-09T09:10:09.952Z,2.50
2022-12-09T09:11:13.697Z,3.00
2022-12-09T09:12:18.093Z,3.00
2022-12-09T09:13:21.886Z,4.00
2022-12-09T09:14:25.099Z,3.62
2022-12-09T09:15:28.429Z,2.71
2022-12-09T09:16:32.183Z,2.29
2022-12-09T09:17:35.775Z,5.00
2022-12-09T09:18:39.374Z,4.71
2022-12-09T09:19:43.324Z,3.86
2022-12-09T09:20:46.980Z,3.12
2022-12-09T09:21:50.787Z,3.29
2022-12-09T09:22:59.439Z,3.50
2022-12-09T09:23:58.763Z,2.50
2022-12-09T09:25:02.355Z,2.57
2022-12-09T09:26:05.673Z,1.29
2022-12-09T09:27:08.942Z,1.86
2022-12-09T09:28:12.406Z,3.29
2022-12-09T09:29:15.326Z,2.43
2022-12-09T09:30:19.744Z,2.43
2022-12-09T09:31:23.193Z,2.00
2022-12-09T09:32:26.691Z,1.00
2022-12-09T09:33:30.807Z,2.12
2022-12-09T09:34:34.392Z,2.43
2022-12-09T09:35:37.942Z,3.00
2022-12-09T09:36:41.419Z,4.00
2022-12-09T09:37:44.837Z,3.00
2022-12-09T09:38:49.115Z,1.00
2022-12-09T09:39:52.741Z,1.00
2022-12-09T09:40:56.146Z,1.43
2022-12-09T09:42:04.581Z,2.00
2022-12-09T09:43:04.155Z,3.37
2022-12-09T09:44:07.724Z,4.57
2022-12-09T09:45:11.257Z,3.86
2022-12-09T09:46:14.656Z,5.71
2022-12-09T09:47:18.824Z,6.71
2022-12-09T09:48:22.379Z,4.75
2022-12-09T09:49:26.277Z,5.43
2022-12-09T09:50:30.093Z,5.25
2022-12-09T09:51:33.688Z,3.57
2022-12-09T09:52:37.541Z,3.43
2022-12-09T09:53:41.137Z,3.57
2022-12-09T09:54:45.110Z,3.43
2022-12-09T09:55:48.889Z,3.57
2022-12-09T09:56:52.447Z,2.57
2022-12-09T09:57:55.648Z,2.43
2022-12-09T09:58:58.984Z,2.00
2022-12-09T10:00:08.529Z,2.43
2022-12-09T10:01:07.324Z,3.12
2022-12-09T10:02:10.813Z,2.71
2022-12-09T10:03:15.145Z,1.75
2022-12-09T10:04:18.701Z,1.00
2022-12-09T10:05:22.968Z,1.00
2022-12-09T10:06:26.571Z,2.57
2022-12-09T10:07:30.339Z,3.00
2022-12-09T10:08:33.949Z,2.43
2022-12-09T10:09:38.308Z,3.37
2022-12-09T10:10:42.293Z,2.57
2022-12-09T10:11:46.082Z,2.00
2022-12-09T10:12:49.929Z,1.50
2022-12-09T10:13:53.678Z,1.25
2022-12-09T10:14:57.372Z,1.86
2022-12-09T10:16:01.652Z,2.50
2022-12-09T10:17:05.572Z,2.12
2022-12-09T10:18:09.602Z,2.25
2022-12-09T10:19:13.906Z,1.50
2022-12-09T10:20:17.425Z,1.86
2022-12-09T10:21:21.653Z,3.50
2022-12-09T10:22:25.674Z,2.37
2022-12-09T10:23:29.264Z,2.43
2022-12-09T10:24:38.738Z,2.50
2022-12-09T10:25:37.510Z,2.00
2022-12-09T10:26:41.289Z,1.62
2022-12-09T10:27:44.672Z,2.00
2022-12-09T10:28:47.855Z,1.71
2022-12-09T10:29:51.466Z,1.29
2022-12-09T10:30:54.652Z,1.29
2022-12-09T10:31:58.506Z,2.57
2022-12-09T10:33:01.569Z,1.50
2022-12-09T10:34:05.607Z,1.86
2022-12-09T10:35:08.812Z,1.50
2022-12-09T10:36:12.360Z,2.00
2022-12-09T10:37:15.902Z,2.00
2022-12-09T10:38:19.647Z,2.00
2022-12-09T10:39:23.499Z,2.29
2022-12-09T10:40:27.031Z,2.75
2022-12-09T10:41:30.955Z,1.57
2022-12-09T10:42:35.402Z,1.00
2022-12-09T10:43:39.013Z,2.00
2022-12-09T10:44:42.448Z,3.12
2022-12-09T10:46:16.663Z,3.43
2022-12-09T10:46:50.231Z,4.00
2022-12-09T10:47:53.956Z,3.86
2022-12-09T10:48:57.362Z,4.00
2022-12-09T10:50:01.360Z,3.37
2022-12-09T10:51:05.031Z,2.14
2022-12-09T10:52:08.534Z,1.29
2022-12-09T10:53:12.128Z,1.00
2022-12-09T10:54:20.950Z,2.75
2022-12-09T10:55:20.232Z,4.00
2022-12-09T10:56:23.626Z,3.00
2022-12-09T10:57:26.863Z,1.57
2022-12-09T10:58:31.215Z,1.00
2022-12-09T10:59:34.681Z,1.00
2022-12-09T11:00:38.400Z,1.43
2022-12-09T11:01:41.859Z,1.57
2022-12-09T11:02:46.062Z,1.75
2022-12-09T11:03:49.853Z,2.25
2022-12-09T11:04:53.576Z,3.00
2022-12-09T11:05:57.178Z,2.50
2022-12-09T11:07:01.066Z,3.00
2022-12-09T11:08:04.971Z,2.25
2022-12-09T11:09:08.520Z,1.71
2022-12-09T11:10:12.500Z,1.57
2022-12-09T11:11:16.265Z,1.25
2022-12-09T11:12:20.135Z,2.00
2022-12-09T11:13:24.535Z,2.00
2022-12-09T11:14:28.639Z,1.75
2022-12-09T11:15:32.359Z,1.50
2022-12-09T11:16:36.464Z,2.50
2022-12-09T11:17:39.937Z,2.50
2022-12-09T11:18:43.452Z,3.29
2022-12-09T11:19:47.001Z,4.14
2022-12-09T11:20:50.913Z,3.00
2022-12-09T11:21:54.674Z,3.00
2022-12-09T11:22:58.424Z,3.00
2022-12-09T11:24:03.481Z,3.00
2022-12-09T11:25:06.266Z,2.00
2022-12-09T11:26:09.787Z,2.00
2022-12-09T11:27:13.429Z,2.86
2022-12-09T11:28:16.721Z,3.00
2022-12-09T11:29:22.118Z,2.14
2022-12-09T11:30:26.412Z,2.37
2022-12-09T11:31:31.849Z,2.25
2022-12-09T11:32:34.753Z,2.50
2022-12-09T11:33:38.480Z,2.00
2022-12-09T11:34:42.179Z,2.43
2022-12-09T11:35:45.829Z,3.86
2022-12-09T11:36:49.338Z,3.50
2022-12-09T11:37:52.516Z,3.00
2022-12-09T11:38:55.728Z,2.00
2022-12-09T11:39:59.308Z,2.29
2022-12-09T11:41:02.675Z,2.14
2022-12-09T11:42:08.118Z,1.86
2022-12-09T11:43:10.386Z,2.12
2022-12-09T11:44:13.563Z,2.00
2022-12-09T11:45:16.961Z,2.43
2022-12-09T11:46:20.346Z,2.71
2022-12-09T11:47:23.612Z,2.71
2022-12-09T11:48:34.037Z,1.43
2022-12-09T11:49:31.109Z,1.75
2022-12-09T11:50:34.274Z,2.00
2022-12-09T11:51:37.432Z,4.14
2022-12-09T11:52:40.764Z,3.00
2022-12-09T12:00:09.927Z,5.00
2022-12-09T12:01:13.196Z,0.86
2022-12-09T12:02:16.599Z,2.43
2022-12-09T12:03:19.899Z,3.43
2022-12-09T12:04:23.146Z,3.14
2022-12-09T12:05:26.491Z,2.29
2022-12-09T12:06:29.698Z,3.86
2022-12-09T12:07:32.883Z,3.57
2022-12-09T12:08:36.529Z,2.43
2022-12-09T12:09:39.745Z,3.00
2022-12-09T12:10:43.133Z,4.57
2022-12-09T12:11:47.348Z,4.71
2022-12-09T12:12:50.728Z,3.00
2022-12-09T12:13:53.930Z,2.57
2022-12-09T12:14:56.882Z,2.86
2022-12-09T12:15:59.965Z,3.57
2022-12-09T12:17:03.106Z,1.00
2022-12-09T12:18:06.226Z,1.86
2022-12-09T12:19:09.539Z,3.00
2022-12-09T12:20:12.704Z,3.00
2022-12-09T12:21:15.779Z,2.57
2022-12-09T12:22:19.052Z,2.00
2022-12-09T12:23:22.006Z,2.33
2022-12-09T12:24:25.317Z,3.00
2022-12-09T12:25:28.501Z,2.57
2022-12-09T12:26:31.374Z,2.29
2022-12-09T12:27:34.761Z,4.00
2022-12-09T12:28:38.045Z,4.00
2022-12-09T12:29:41.259Z,3.17
2022-12-09T12:30:44.474Z,2.67
2022-12-09T12:31:47.424Z,3.86
2022-12-09T12:33:11.717Z,3.00
2022-12-09T12:34:59.397Z,1.00
2022-12-09T12:36:02.580Z,1.71
2022-12-09T12:37:06.263Z,3.00
2022-12-09T12:38:09.571Z,3.43
2022-12-09T12:39:12.742Z,2.50
2022-12-09T12:40:15.920Z,1.33
2022-12-09T12:41:19.212Z,2.43
2022-12-09T12:42:22.288Z,2.71
2022-12-09T12:43:25.483Z,2.43
2022-12-09T12:44:29.252Z,2.57
2022-12-09T12:45:32.422Z,3.29
2022-12-09T12:46:35.654Z,3.86
2022-12-09T12:47:38.808Z,2.57
2022-12-09T12:48:42.067Z,2.00
2022-12-09T12:49:45.680Z,2.00
2022-12-09T12:50:48.976Z,1.57
2022-12-09T12:51:54.351Z,1.00
2022-12-09T12:52:57.033Z,2.00
2022-12-09T12:54:00.559Z,2.50
2022-12-09T12:55:03.744Z,2.57
2022-12-09T12:56:07.223Z,2.43
2022-12-09T12:57:10.547Z,2.57
2022-12-09T12:58:13.696Z,3.29
2022-12-09T12:59:16.685Z,3.14
2022-12-09T13:00:19.853Z,1.67
2022-12-09T13:01:23.126Z,3.33
2022-12-09T13:02:26.134Z,4.00
2022-12-09T13:03:29.199Z,4.00
2022-12-09T13:04:32.373Z,4.86
2022-12-09T13:05:35.462Z,5.00
2022-12-09T13:06:38.643Z,2.00
2022-12-09T13:07:41.707Z,3.29
2022-12-09T13:08:44.792Z,4.86
2022-12-09T13:09:48.908Z,3.67
2022-12-09T13:10:51.974Z,2.43
2022-12-09T13:11:55.163Z,3.17
2022-12-09T13:12:58.239Z,3.29
2022-12-09T13:14:01.528Z,3.00
2022-12-09T13:15:04.611Z,3.00
2022-12-09T13:16:07.797Z,2.29
2022-12-09T13:17:10.864Z,2.33
2022-12-09T13:18:14.156Z,4.00
2022-12-09T13:19:17.439Z,3.71
2022-12-09T13:20:20.423Z,3.29
2022-12-09T13:21:23.598Z,4.14
2022-12-09T13:22:26.775Z,1.83
2022-12-09T13:23:29.865Z,1.67
2022-12-09T13:24:32.803Z,3.00
2022-12-09T13:25:35.925Z,2.67
2022-12-09T13:26:38.987Z,1.67
2022-12-09T13:27:42.068Z,2.86
2022-12-09T13:28:45.454Z,1.86
2022-12-09T13:29:48.641Z,1.86
2022-12-09T13:30:54.319Z,3.57
2022-12-09T13:31:55.929Z,3.12
2022-12-09T13:32:59.107Z,3.14
2022-12-09T13:34:02.087Z,2.17
2022-12-09T13:35:05.164Z,3.43
2022-12-09T13:36:09.082Z,3.57
2022-12-09T13:37:12.556Z,3.43
2022-12-09T13:38:15.833Z,3.43
2022-12-09T13:39:19.329Z,3.29
2022-12-09T13:40:22.418Z,2.57
2022-12-09T13:41:25.494Z,2.83
2022-12-09T13:42:28.661Z,3.00
2022-12-09T13:43:35.132Z,3.43
2022-12-09T13:44:38.306Z,3.50
2022-12-09T13:45:41.538Z,2.33
2022-12-09T13:46:44.976Z,1.86
2022-12-09T13:47:48.156Z,2.43
2022-12-09T13:48:51.260Z,1.50
2022-12-09T13:49:54.438Z,3.29
2022-12-09T13:50:57.857Z,3.57
2022-12-09T13:52:00.896Z,2.71
2022-12-09T13:53:04.285Z,3.57
2022-12-09T13:54:07.454Z,4.86
2022-12-09T13:55:10.640Z,2.71
2022-12-09T13:56:13.719Z,3.71
2022-12-09T13:57:16.804Z,5.33
2022-12-09T13:58:19.970Z,3.43
2022-12-09T13:59:22.957Z,3.57
2022-12-09T14:00:26.133Z,2.57
2022-12-09T14:01:29.308Z,1.83
2022-12-09T14:02:32.664Z,2.33
2022-12-09T14:03:35.820Z,2.14
2022-12-09T14:04:38.864Z,1.86
2022-12-09T14:05:42.143Z,3.14
2022-12-09T14:06:45.440Z,3.43
2022-12-09T14:07:48.759Z,3.43
2022-12-09T14:08:51.895Z,2.71
2022-12-09T14:09:54.974Z,2.00
2022-12-09T14:10:57.958Z,1.33
2022-12-09T14:12:00.937Z,1.86